METAR Data
IDs: Format: Raw Decoded Include TAF

Data at: 2047 UTC 08 Aug 2020

KFLG 081957Z 21015G25KT 10SM SCT095 28/01 A3035 RMK AO2 PK WND 23028/1917 SLP171 T02780011
KFLG 081857Z 22020G27KT 10SM SCT110 28/01 A3037 RMK AO2 PK WND 21027/1856 SLP175 T02780006
KFLG 081757Z 21012G18KT 10SM SCT095 27/02 A3038 RMK AO2 SLP175 T02670022 10272 20078 56002
KFLG 081657Z 22013G23KT 10SM CLR 26/02 A3038 RMK AO2 SLP174 T02560022
KFLG 081557Z 21011KT 10SM CLR 23/04 A3038 RMK AO2 SLP175 T02330044
KFLG 081457Z 00000KT 10SM CLR 21/01 A3038 RMK AO2 SLP175 T02110011 51012
KFLG 081357Z 00000KT 10SM CLR 13/02 A3037 RMK AO2 SLP182 T01330022
KFLG 081257Z 00000KT 10SM CLR 08/02 A3036 RMK AO2 SLP188 T00780017
KFLG 081157Z AUTO 00000KT 10SM CLR 08/02 A3034 RMK AO2 SLP178 T00780017 10150 20078 53002
KFLG 081057Z AUTO 00000KT 10SM CLR 08/02 A3034 RMK AO2 SLP174 T00830022
KFLG 080957Z AUTO 00000KT 10SM CLR 09/03 A3033 RMK AO2 SLP170 T00940028
KFLG 080857Z AUTO 00000KT 10SM CLR 11/03 A3033 RMK AO2 SLP167 T01060028 50000
KFLG 080757Z AUTO 00000KT 10SM CLR 11/03 A3034 RMK AO2 SLP169 T01110033
KFLG 080657Z AUTO 00000KT 10SM CLR 12/03 A3034 RMK AO2 SLP169 T01220033 402780078
KFLG 080557Z AUTO 00000KT 10SM CLR 14/02 A3033 RMK AO2 SLP164 T01390022 10267 20139 50010
KFLG 080457Z AUTO 00000KT 10SM CLR 16/02 A3033 RMK AO2 SLP163 T01610017
KFLG 080357Z 00000KT 10SM CLR 17/02 A3032 RMK AO2 SLP157 T01720017
KFLG 080257Z 21005KT 10SM CLR 21/02 A3029 RMK AO2 SLP145 T02110017 53007
KFLG 080157Z 21013KT 10SM CLR 24/01 A3028 RMK AO2 SLP152 T02390006
KFLG 080057Z 23009G21KT 10SM CLR 25/01 A3027 RMK AO2 SLP155 T02500006
KFLG 072357Z 24011G23KT 10SM FEW095 26/01 A3027 RMK AO2 PK WND 20026/2345 SLP150 T02610011 10278 20244 56007
KFLG 072257Z 20018G25KT 170V240 10SM SCT100 27/01 A3027 RMK AO2 PK WND 20026/2201 SLP148 T02670011
KFLG 072157Z 21012G27KT 10SM FEW095 27/02 A3027 RMK AO2 PK WND 22029/2131 SLP147 T02720017
KFLG 072057Z 21014G22KT 160V240 10SM FEW100 27/01 A3029 RMK AO2 PK WND 24027/2029 WSHFT 1953 SLP155 T02720011 58006
KFLG 072013Z 25011G22KT 10SM FEW095 26/01 A3030 RMK AO2 WSHFT 1953 T02560011
KFLG 071957Z 22020G26KT 10SM CLR 26/01 A3031 RMK AO2 PK WND 22030/1909 SLP164 T02610011
KFLG 071857Z 21018G23KT 10SM CLR 26/00 A3031 RMK AO2 SLP161 T02560000
KFLG 071757Z 21016G22KT 10SM CLR 24/00 A3031 RMK AO2 SLP160 T02440000 10250 20078 51006
KFLG 071657Z 21016G20KT 10SM CLR 24/00 A3031 RMK AO2 SLP157 T02390000
KFLG 071557Z 21013G20KT 10SM CLR 22/M02 A3030 RMK AO2 SLP148 T02221017
KFLG 071457Z 26003KT 10SM CLR 20/M03 A3029 RMK AO2 SLP144 T02001028 51014
KFLG 071357Z 00000KT 10SM CLR 13/M01 A3027 RMK AO2 SLP149 T01281011
KFLG 071257Z 00000KT 10SM CLR 08/M04 A3025 RMK AO2 SLP150 T00781044
KFLG 071157Z AUTO 00000KT 10SM CLR 09/M05 A3024 RMK AO2 SLP140 T00941050 10133 20083 53003
KFLG 071057Z AUTO 00000KT 10SM CLR 10/M04 A3023 RMK AO2 SLP135 T01001044
KFLG 070957Z AUTO 00000KT 10SM CLR 11/M04 A3023 RMK AO2 SLP131 T01061044
KFLG 070857Z AUTO 24003KT 10SM CLR 09/M04 A3023 RMK AO2 SLP133 T00941044 50001